sensor_id;sensor_type;location;lat;lon;timestamp;P1;durP1;ratioP1;P2;durP2;ratioP2
42514;SDS011;28144;49.920;18.730;2023-07-20T00:01:14;9.98;;;3.40;;
42514;SDS011;28144;49.920;18.730;2023-07-20T00:03:40;5.78;;;3.03;;
42514;SDS011;28144;49.920;18.730;2023-07-20T00:06:06;3.88;;;2.72;;
42514;SDS011;28144;49.920;18.730;2023-07-20T00:08:32;8.90;;;2.85;;
42514;SDS011;28144;49.920;18.730;2023-07-20T00:10:58;8.40;;;2.60;;
42514;SDS011;28144;49.920;18.730;2023-07-20T00:13:23;8.07;;;2.77;;
42514;SDS011;28144;49.920;18.730;2023-07-20T00:15:50;6.80;;;2.50;;
42514;SDS011;28144;49.920;18.730;2023-07-20T00:18:16;6.13;;;2.30;;
42514;SDS011;28144;49.920;18.730;2023-07-20T00:20:42;7.32;;;2.28;;
42514;SDS011;28144;49.920;18.730;2023-07-20T00:23:08;7.87;;;2.33;;
42514;SDS011;28144;49.920;18.730;2023-07-20T00:25:34;5.13;;;2.60;;
42514;SDS011;28144;49.920;18.730;2023-07-20T00:30:27;5.35;;;2.22;;
42514;SDS011;28144;49.920;18.730;2023-07-20T00:32:52;8.70;;;2.30;;
42514;SDS011;28144;49.920;18.730;2023-07-20T00:35:18;6.85;;;2.22;;
42514;SDS011;28144;49.920;18.730;2023-07-20T00:37:43;3.70;;;2.40;;
42514;SDS011;28144;49.920;18.730;2023-07-20T00:40:09;4.82;;;2.38;;
42514;SDS011;28144;49.920;18.730;2023-07-20T00:42:35;8.87;;;2.53;;
42514;SDS011;28144;49.920;18.730;2023-07-20T00:45:01;7.88;;;2.33;;
42514;SDS011;28144;49.920;18.730;2023-07-20T00:47:27;9.30;;;2.42;;
42514;SDS011;28144;49.920;18.730;2023-07-20T00:49:53;6.95;;;2.17;;
42514;SDS011;28144;49.920;18.730;2023-07-20T00:52:20;6.40;;;2.30;;
42514;SDS011;28144;49.920;18.730;2023-07-20T00:54:47;7.20;;;2.38;;
42514;SDS011;28144;49.920;18.730;2023-07-20T00:57:16;8.27;;;2.55;;
42514;SDS011;28144;49.920;18.730;2023-07-20T00:59:43;3.78;;;2.20;;
42514;SDS011;28144;49.920;18.730;2023-07-20T01:02:09;7.38;;;2.40;;
42514;SDS011;28144;49.920;18.730;2023-07-20T01:04:34;9.60;;;2.80;;
42514;SDS011;28144;49.920;18.730;2023-07-20T01:07:03;5.93;;;2.35;;
42514;SDS011;28144;49.920;18.730;2023-07-20T01:10:02;5.05;;;2.63;;
42514;SDS011;28144;49.920;18.730;2023-07-20T01:12:49;3.55;;;2.47;;
42514;SDS011;28144;49.920;18.730;2023-07-20T01:15:17;5.28;;;2.67;;
42514;SDS011;28144;49.920;18.730;2023-07-20T01:17:43;5.70;;;2.60;;
42514;SDS011;28144;49.920;18.730;2023-07-20T01:28:33;7.03;;;2.35;;
42514;SDS011;28144;49.920;18.730;2023-07-20T01:33:43;3.00;;;2.25;;
42514;SDS011;28144;49.920;18.730;2023-07-20T01:36:10;5.60;;;2.35;;
42514;SDS011;28144;49.920;18.730;2023-07-20T01:38:36;7.95;;;2.63;;
42514;SDS011;28144;49.920;18.730;2023-07-20T01:41:02;4.18;;;2.28;;
42514;SDS011;28144;49.920;18.730;2023-07-20T01:43:28;4.22;;;2.15;;
42514;SDS011;28144;49.920;18.730;2023-07-20T01:45:54;3.30;;;2.10;;
42514;SDS011;28144;49.920;18.730;2023-07-20T01:48:20;3.13;;;2.23;;
42514;SDS011;28144;49.920;18.730;2023-07-20T01:50:45;5.03;;;2.20;;
42514;SDS011;28144;49.920;18.730;2023-07-20T01:53:11;7.85;;;2.38;;
42514;SDS011;28144;49.920;18.730;2023-07-20T01:55:37;3.60;;;2.35;;
42514;SDS011;28144;49.920;18.730;2023-07-20T01:58:02;3.37;;;2.23;;
42514;SDS011;28144;49.920;18.730;2023-07-20T02:00:29;4.32;;;2.13;;
42514;SDS011;28144;49.920;18.730;2023-07-20T02:02:54;2.90;;;1.95;;
42514;SDS011;28144;49.920;18.730;2023-07-20T02:05:20;5.38;;;2.10;;
42514;SDS011;28144;49.920;18.730;2023-07-20T02:07:46;4.17;;;2.33;;
42514;SDS011;28144;49.920;18.730;2023-07-20T02:10:12;8.00;;;2.30;;
42514;SDS011;28144;49.920;18.730;2023-07-20T02:12:37;5.63;;;1.80;;
42514;SDS011;28144;49.920;18.730;2023-07-20T02:15:04;4.32;;;1.63;;
42514;SDS011;28144;49.920;18.730;2023-07-20T02:17:30;2.95;;;2.28;;
42514;SDS011;28144;49.920;18.730;2023-07-20T02:19:56;6.18;;;1.92;;
42514;SDS011;28144;49.920;18.730;2023-07-20T02:22:22;4.28;;;1.63;;
42514;SDS011;28144;49.920;18.730;2023-07-20T02:24:49;8.95;;;2.28;;
42514;SDS011;28144;49.920;18.730;2023-07-20T02:27:15;4.88;;;1.95;;
42514;SDS011;28144;49.920;18.730;2023-07-20T02:29:41;9.75;;;1.95;;
42514;SDS011;28144;49.920;18.730;2023-07-20T02:32:08;2.72;;;1.80;;
42514;SDS011;28144;49.920;18.730;2023-07-20T02:34:35;7.43;;;2.00;;
42514;SDS011;28144;49.920;18.730;2023-07-20T02:37:01;5.53;;;1.75;;
42514;SDS011;28144;49.920;18.730;2023-07-20T02:39:27;3.17;;;2.10;;
42514;SDS011;28144;49.920;18.730;2023-07-20T02:41:53;6.85;;;2.10;;
42514;SDS011;28144;49.920;18.730;2023-07-20T02:44:19;4.28;;;1.90;;
42514;SDS011;28144;49.920;18.730;2023-07-20T02:46:45;4.30;;;2.17;;
42514;SDS011;28144;49.920;18.730;2023-07-20T02:49:11;5.03;;;1.70;;
42514;SDS011;28144;49.920;18.730;2023-07-20T02:51:37;8.40;;;2.00;;
42514;SDS011;28144;49.920;18.730;2023-07-20T02:54:03;4.50;;;2.10;;
42514;SDS011;28144;49.920;18.730;2023-07-20T02:56:29;5.53;;;2.03;;
42514;SDS011;28144;49.920;18.730;2023-07-20T02:58:55;6.95;;;2.35;;
42514;SDS011;28144;49.920;18.730;2023-07-20T03:01:20;5.23;;;2.00;;
42514;SDS011;28144;49.920;18.730;2023-07-20T03:03:46;2.78;;;1.85;;
42514;SDS011;28144;49.920;18.730;2023-07-20T03:06:13;5.45;;;1.60;;
42514;SDS011;28144;49.920;18.730;2023-07-20T03:08:40;4.32;;;2.20;;
42514;SDS011;28144;49.920;18.730;2023-07-20T03:11:07;2.88;;;1.70;;
42514;SDS011;28144;49.920;18.730;2023-07-20T03:13:33;4.45;;;1.95;;
42514;SDS011;28144;49.920;18.730;2023-07-20T03:15:58;2.73;;;1.73;;
42514;SDS011;28144;49.920;18.730;2023-07-20T03:18:24;11.80;;;2.10;;
42514;SDS011;28144;49.920;18.730;2023-07-20T03:20:50;2.20;;;1.63;;
42514;SDS011;28144;49.920;18.730;2023-07-20T03:23:15;2.80;;;1.80;;
42514;SDS011;28144;49.920;18.730;2023-07-20T03:25:42;5.45;;;2.08;;
42514;SDS011;28144;49.920;18.730;2023-07-20T03:28:07;2.90;;;1.45;;
42514;SDS011;28144;49.920;18.730;2023-07-20T03:30:34;3.67;;;1.80;;
42514;SDS011;28144;49.920;18.730;2023-07-20T03:33:00;3.35;;;2.25;;
42514;SDS011;28144;49.920;18.730;2023-07-20T03:35:26;8.13;;;2.00;;
42514;SDS011;28144;49.920;18.730;2023-07-20T03:37:52;4.63;;;2.38;;
42514;SDS011;28144;49.920;18.730;2023-07-20T03:40:17;2.40;;;1.73;;
42514;SDS011;28144;49.920;18.730;2023-07-20T03:42:43;3.63;;;1.88;;
42514;SDS011;28144;49.920;18.730;2023-07-20T03:45:09;5.67;;;2.50;;
42514;SDS011;28144;49.920;18.730;2023-07-20T03:47:35;5.07;;;1.95;;
42514;SDS011;28144;49.920;18.730;2023-07-20T03:50:00;5.77;;;1.80;;
42514;SDS011;28144;49.920;18.730;2023-07-20T03:52:26;3.70;;;2.13;;
42514;SDS011;28144;49.920;18.730;2023-07-20T03:54:52;4.03;;;1.80;;
42514;SDS011;28144;49.920;18.730;2023-07-20T03:57:18;7.18;;;2.40;;
42514;SDS011;28144;49.920;18.730;2023-07-20T03:59:48;3.43;;;1.80;;
42514;SDS011;28144;49.920;18.730;2023-07-20T04:02:13;5.88;;;2.60;;
42514;SDS011;28144;49.920;18.730;2023-07-20T04:04:39;5.60;;;2.10;;
42514;SDS011;28144;49.920;18.730;2023-07-20T04:07:05;5.57;;;2.30;;
42514;SDS011;28144;49.920;18.730;2023-07-20T04:09:32;4.18;;;2.40;;
42514;SDS011;28144;49.920;18.730;2023-07-20T04:11:58;9.30;;;2.65;;
42514;SDS011;28144;49.920;18.730;2023-07-20T04:16:50;5.13;;;2.00;;
42514;SDS011;28144;49.920;18.730;2023-07-20T04:19:16;5.10;;;2.22;;
42514;SDS011;28144;49.920;18.730;2023-07-20T04:21:43;4.80;;;2.38;;
42514;SDS011;28144;49.920;18.730;2023-07-20T04:24:09;7.88;;;2.05;;
42514;SDS011;28144;49.920;18.730;2023-07-20T04:26:34;4.78;;;2.63;;
42514;SDS011;28144;49.920;18.730;2023-07-20T04:29:00;5.50;;;1.58;;
42514;SDS011;28144;49.920;18.730;2023-07-20T04:31:26;7.00;;;2.22;;
42514;SDS011;28144;49.920;18.730;2023-07-20T04:33:52;8.53;;;2.60;;
42514;SDS011;28144;49.920;18.730;2023-07-20T04:36:18;6.65;;;2.50;;
42514;SDS011;28144;49.920;18.730;2023-07-20T04:38:45;4.93;;;2.05;;
42514;SDS011;28144;49.920;18.730;2023-07-20T04:41:11;6.82;;;2.60;;
42514;SDS011;28144;49.920;18.730;2023-07-20T04:43:40;7.45;;;2.50;;
42514;SDS011;28144;49.920;18.730;2023-07-20T04:46:07;7.18;;;2.28;;
42514;SDS011;28144;49.920;18.730;2023-07-20T04:48:33;3.88;;;1.80;;
42514;SDS011;28144;49.920;18.730;2023-07-20T04:50:58;5.60;;;2.35;;
42514;SDS011;28144;49.920;18.730;2023-07-20T04:53:24;6.20;;;2.57;;
42514;SDS011;28144;49.920;18.730;2023-07-20T04:55:50;4.35;;;2.30;;
42514;SDS011;28144;49.920;18.730;2023-07-20T04:58:18;5.93;;;2.75;;
42514;SDS011;28144;49.920;18.730;2023-07-20T05:00:44;6.32;;;2.08;;
42514;SDS011;28144;49.920;18.730;2023-07-20T05:03:09;4.70;;;2.27;;
42514;SDS011;28144;49.920;18.730;2023-07-20T05:05:35;6.85;;;2.38;;
42514;SDS011;28144;49.920;18.730;2023-07-20T05:08:03;4.95;;;2.25;;
42514;SDS011;28144;49.920;18.730;2023-07-20T05:10:29;6.07;;;2.47;;
42514;SDS011;28144;49.920;18.730;2023-07-20T05:12:55;3.13;;;1.83;;
42514;SDS011;28144;49.920;18.730;2023-07-20T05:15:20;8.52;;;2.58;;
42514;SDS011;28144;49.920;18.730;2023-07-20T05:17:46;4.93;;;2.20;;
42514;SDS011;28144;49.920;18.730;2023-07-20T05:20:14;4.45;;;2.00;;
42514;SDS011;28144;49.920;18.730;2023-07-20T05:22:40;5.63;;;1.98;;
42514;SDS011;28144;49.920;18.730;2023-07-20T05:25:06;3.55;;;2.40;;
42514;SDS011;28144;49.920;18.730;2023-07-20T05:27:33;4.93;;;1.83;;
42514;SDS011;28144;49.920;18.730;2023-07-20T05:29:59;3.75;;;1.80;;
42514;SDS011;28144;49.920;18.730;2023-07-20T05:32:25;4.13;;;2.15;;
42514;SDS011;28144;49.920;18.730;2023-07-20T05:34:52;3.22;;;2.08;;
42514;SDS011;28144;49.920;18.730;2023-07-20T05:39:43;5.03;;;2.10;;
42514;SDS011;28144;49.920;18.730;2023-07-20T05:42:09;9.90;;;1.90;;
42514;SDS011;28144;49.920;18.730;2023-07-20T05:44:35;6.85;;;1.85;;
42514;SDS011;28144;49.920;18.730;2023-07-20T05:47:00;5.03;;;2.22;;
42514;SDS011;28144;49.920;18.730;2023-07-20T05:49:28;9.82;;;2.25;;
42514;SDS011;28144;49.920;18.730;2023-07-20T05:51:54;5.13;;;1.75;;
42514;SDS011;28144;49.920;18.730;2023-07-20T05:54:21;4.95;;;1.73;;
42514;SDS011;28144;49.920;18.730;2023-07-20T05:56:47;3.97;;;1.80;;
42514;SDS011;28144;49.920;18.730;2023-07-20T05:59:12;3.30;;;1.70;;
42514;SDS011;28144;49.920;18.730;2023-07-20T06:01:38;2.97;;;1.88;;
42514;SDS011;28144;49.920;18.730;2023-07-20T06:04:04;2.95;;;1.73;;
42514;SDS011;28144;49.920;18.730;2023-07-20T06:06:29;2.78;;;1.50;;
42514;SDS011;28144;49.920;18.730;2023-07-20T06:08:55;5.95;;;1.85;;
42514;SDS011;28144;49.920;18.730;2023-07-20T06:11:21;4.03;;;1.45;;
42514;SDS011;28144;49.920;18.730;2023-07-20T06:13:47;4.60;;;1.92;;
42514;SDS011;28144;49.920;18.730;2023-07-20T06:16:12;5.78;;;1.75;;
42514;SDS011;28144;49.920;18.730;2023-07-20T06:21:04;7.20;;;2.13;;
42514;SDS011;28144;49.920;18.730;2023-07-20T06:23:30;7.65;;;1.55;;
42514;SDS011;28144;49.920;18.730;2023-07-20T06:25:55;4.45;;;1.70;;
42514;SDS011;28144;49.920;18.730;2023-07-20T06:28:21;3.63;;;1.50;;
42514;SDS011;28144;49.920;18.730;2023-07-20T06:30:47;3.75;;;1.92;;
42514;SDS011;28144;49.920;18.730;2023-07-20T06:33:13;5.32;;;1.85;;
42514;SDS011;28144;49.920;18.730;2023-07-20T06:35:41;5.63;;;1.90;;
42514;SDS011;28144;49.920;18.730;2023-07-20T06:38:07;3.65;;;1.50;;
42514;SDS011;28144;49.920;18.730;2023-07-20T06:40:33;4.00;;;1.63;;
42514;SDS011;28144;49.920;18.730;2023-07-20T06:42:59;2.92;;;1.65;;
42514;SDS011;28144;49.920;18.730;2023-07-20T06:45:24;5.03;;;1.50;;
42514;SDS011;28144;49.920;18.730;2023-07-20T06:47:51;2.38;;;1.27;;
42514;SDS011;28144;49.920;18.730;2023-07-20T06:50:16;2.97;;;1.52;;
42514;SDS011;28144;49.920;18.730;2023-07-20T06:52:42;3.08;;;1.65;;
42514;SDS011;28144;49.920;18.730;2023-07-20T06:55:08;3.05;;;1.40;;
42514;SDS011;28144;49.920;18.730;2023-07-20T06:57:34;2.33;;;1.30;;
42514;SDS011;28144;49.920;18.730;2023-07-20T07:00:00;3.67;;;1.27;;
42514;SDS011;28144;49.920;18.730;2023-07-20T07:02:29;3.92;;;1.60;;
42514;SDS011;28144;49.920;18.730;2023-07-20T07:04:55;3.55;;;1.58;;
42514;SDS011;28144;49.920;18.730;2023-07-20T07:07:21;3.20;;;1.45;;
42514;SDS011;28144;49.920;18.730;2023-07-20T07:09:47;3.53;;;1.73;;
42514;SDS011;28144;49.920;18.730;2023-07-20T07:12:13;5.00;;;1.50;;
42514;SDS011;28144;49.920;18.730;2023-07-20T07:14:39;2.80;;;1.77;;
42514;SDS011;28144;49.920;18.730;2023-07-20T07:17:06;2.47;;;1.63;;
42514;SDS011;28144;49.920;18.730;2023-07-20T07:21:58;2.10;;;1.27;;
42514;SDS011;28144;49.920;18.730;2023-07-20T07:24:23;3.83;;;1.00;;
42514;SDS011;28144;49.920;18.730;2023-07-20T07:26:49;1.73;;;1.33;;
42514;SDS011;28144;49.920;18.730;2023-07-20T07:29:15;3.13;;;1.15;;
42514;SDS011;28144;49.920;18.730;2023-07-20T07:31:40;1.95;;;1.15;;
42514;SDS011;28144;49.920;18.730;2023-07-20T07:34:06;2.17;;;1.30;;
42514;SDS011;28144;49.920;18.730;2023-07-20T07:36:32;5.15;;;1.20;;
42514;SDS011;28144;49.920;18.730;2023-07-20T07:38:58;1.48;;;1.05;;
42514;SDS011;28144;49.920;18.730;2023-07-20T07:41:24;4.32;;;1.40;;
42514;SDS011;28144;49.920;18.730;2023-07-20T07:43:49;2.75;;;1.17;;
42514;SDS011;28144;49.920;18.730;2023-07-20T07:46:15;3.47;;;1.30;;
42514;SDS011;28144;49.920;18.730;2023-07-20T07:48:41;5.97;;;1.17;;
42514;SDS011;28144;49.920;18.730;2023-07-20T07:51:07;11.02;;;1.83;;
42514;SDS011;28144;49.920;18.730;2023-07-20T07:56:01;4.60;;;1.38;;
42514;SDS011;28144;49.920;18.730;2023-07-20T07:58:28;6.88;;;1.40;;
42514;SDS011;28144;49.920;18.730;2023-07-20T08:00:54;5.68;;;1.42;;
42514;SDS011;28144;49.920;18.730;2023-07-20T08:03:20;4.35;;;1.30;;
42514;SDS011;28144;49.920;18.730;2023-07-20T08:05:47;10.45;;;1.70;;
42514;SDS011;28144;49.920;18.730;2023-07-20T08:08:12;6.15;;;1.38;;
42514;SDS011;28144;49.920;18.730;2023-07-20T08:10:39;2.78;;;1.60;;
42514;SDS011;28144;49.920;18.730;2023-07-20T08:13:04;7.28;;;2.05;;
42514;SDS011;28144;49.920;18.730;2023-07-20T08:15:30;6.78;;;1.67;;
42514;SDS011;28144;49.920;18.730;2023-07-20T08:17:55;5.55;;;1.40;;
42514;SDS011;28144;49.920;18.730;2023-07-20T08:20:22;3.08;;;1.35;;
42514;SDS011;28144;49.920;18.730;2023-07-20T08:22:52;8.32;;;1.80;;
42514;SDS011;28144;49.920;18.730;2023-07-20T08:25:22;4.05;;;1.48;;
42514;SDS011;28144;49.920;18.730;2023-07-20T08:27:48;2.85;;;1.50;;
42514;SDS011;28144;49.920;18.730;2023-07-20T08:30:17;2.78;;;1.40;;
42514;SDS011;28144;49.920;18.730;2023-07-20T08:32:42;4.95;;;1.50;;
42514;SDS011;28144;49.920;18.730;2023-07-20T08:35:26;3.28;;;1.50;;
42514;SDS011;28144;49.920;18.730;2023-07-20T08:37:52;2.47;;;1.63;;
42514;SDS011;28144;49.920;18.730;2023-07-20T08:40:18;3.80;;;1.50;;
42514;SDS011;28144;49.920;18.730;2023-07-20T08:42:44;4.05;;;2.25;;
42514;SDS011;28144;49.920;18.730;2023-07-20T08:47:36;5.57;;;1.48;;
42514;SDS011;28144;49.920;18.730;2023-07-20T08:52:31;2.65;;;1.35;;
42514;SDS011;28144;49.920;18.730;2023-07-20T08:54:59;3.63;;;1.40;;
42514;SDS011;28144;49.920;18.730;2023-07-20T08:57:28;2.50;;;1.63;;
42514;SDS011;28144;49.920;18.730;2023-07-20T08:59:56;6.43;;;1.85;;
42514;SDS011;28144;49.920;18.730;2023-07-20T09:02:21;4.13;;;1.48;;
42514;SDS011;28144;49.920;18.730;2023-07-20T09:04:49;4.10;;;1.02;;
42514;SDS011;28144;49.920;18.730;2023-07-20T09:07:15;2.40;;;1.30;;
42514;SDS011;28144;49.920;18.730;2023-07-20T09:09:41;4.68;;;1.92;;
42514;SDS011;28144;49.920;18.730;2023-07-20T09:12:13;2.78;;;1.63;;
42514;SDS011;28144;49.920;18.730;2023-07-20T09:14:42;6.20;;;1.70;;
42514;SDS011;28144;49.920;18.730;2023-07-20T09:17:08;2.42;;;1.48;;
42514;SDS011;28144;49.920;18.730;2023-07-20T09:19:38;2.88;;;1.48;;
42514;SDS011;28144;49.920;18.730;2023-07-20T09:22:04;2.03;;;1.48;;
42514;SDS011;28144;49.920;18.730;2023-07-20T09:24:34;7.63;;;1.52;;
42514;SDS011;28144;49.920;18.730;2023-07-20T09:26:59;1.65;;;1.17;;
42514;SDS011;28144;49.920;18.730;2023-07-20T09:29:27;4.93;;;1.50;;
42514;SDS011;28144;49.920;18.730;2023-07-20T09:34:35;1.95;;;1.48;;
42514;SDS011;28144;49.920;18.730;2023-07-20T09:37:00;3.28;;;1.42;;
42514;SDS011;28144;49.920;18.730;2023-07-20T09:39:26;3.60;;;1.45;;
42514;SDS011;28144;49.920;18.730;2023-07-20T09:41:52;3.55;;;1.52;;
42514;SDS011;28144;49.920;18.730;2023-07-20T09:44:19;3.50;;;1.40;;
42514;SDS011;28144;49.920;18.730;2023-07-20T09:46:45;2.17;;;1.35;;
42514;SDS011;28144;49.920;18.730;2023-07-20T09:49:14;2.10;;;1.40;;
42514;SDS011;28144;49.920;18.730;2023-07-20T09:54:13;3.13;;;1.58;;
42514;SDS011;28144;49.920;18.730;2023-07-20T09:56:38;3.72;;;1.40;;
42514;SDS011;28144;49.920;18.730;2023-07-20T09:59:05;2.90;;;1.13;;
42514;SDS011;28144;49.920;18.730;2023-07-20T10:01:31;6.28;;;2.15;;
42514;SDS011;28144;49.920;18.730;2023-07-20T10:03:59;3.20;;;1.35;;
42514;SDS011;28144;49.920;18.730;2023-07-20T10:06:28;2.28;;;1.30;;
42514;SDS011;28144;49.920;18.730;2023-07-20T10:08:57;4.28;;;1.70;;
42514;SDS011;28144;49.920;18.730;2023-07-20T10:11:26;1.63;;;1.20;;
42514;SDS011;28144;49.920;18.730;2023-07-20T10:13:55;1.95;;;1.20;;
42514;SDS011;28144;49.920;18.730;2023-07-20T10:16:28;3.00;;;1.30;;
42514;SDS011;28144;49.920;18.730;2023-07-20T10:19:03;2.45;;;1.25;;
42514;SDS011;28144;49.920;18.730;2023-07-20T10:21:29;7.10;;;1.60;;
42514;SDS011;28144;49.920;18.730;2023-07-20T10:26:21;2.65;;;1.38;;
42514;SDS011;28144;49.920;18.730;2023-07-20T10:28:47;1.58;;;1.40;;
42514;SDS011;28144;49.920;18.730;2023-07-20T10:31:13;4.93;;;2.45;;
42514;SDS011;28144;49.920;18.730;2023-07-20T10:33:39;5.40;;;1.50;;
42514;SDS011;28144;49.920;18.730;2023-07-20T10:36:05;2.05;;;1.42;;
42514;SDS011;28144;49.920;18.730;2023-07-20T10:41:16;3.45;;;1.98;;
42514;SDS011;28144;49.920;18.730;2023-07-20T10:43:47;5.03;;;1.90;;
42514;SDS011;28144;49.920;18.730;2023-07-20T10:49:05;3.92;;;2.63;;
42514;SDS011;28144;49.920;18.730;2023-07-20T10:51:39;9.85;;;3.10;;
42514;SDS011;28144;49.920;18.730;2023-07-20T10:54:07;4.57;;;2.80;;
42514;SDS011;28144;49.920;18.730;2023-07-20T10:56:43;7.63;;;2.60;;
42514;SDS011;28144;49.920;18.730;2023-07-20T11:01:54;7.80;;;2.20;;
42514;SDS011;28144;49.920;18.730;2023-07-20T11:07:06;4.63;;;2.38;;
42514;SDS011;28144;49.920;18.730;2023-07-20T11:09:36;5.93;;;2.63;;
42514;SDS011;28144;49.920;18.730;2023-07-20T11:12:09;4.55;;;2.17;;
42514;SDS011;28144;49.920;18.730;2023-07-20T11:14:39;3.67;;;2.30;;
42514;SDS011;28144;49.920;18.730;2023-07-20T11:17:10;7.22;;;2.42;;
42514;SDS011;28144;49.920;18.730;2023-07-20T11:19:40;6.47;;;2.88;;
42514;SDS011;28144;49.920;18.730;2023-07-20T11:24:39;8.50;;;2.40;;
42514;SDS011;28144;49.920;18.730;2023-07-20T11:27:05;3.00;;;2.15;;
42514;SDS011;28144;49.920;18.730;2023-07-20T11:34:24;6.68;;;2.33;;
42514;SDS011;28144;49.920;18.730;2023-07-20T11:36:51;5.60;;;1.90;;
42514;SDS011;28144;49.920;18.730;2023-07-20T11:39:18;5.68;;;2.38;;
42514;SDS011;28144;49.920;18.730;2023-07-20T11:44:21;6.75;;;2.00;;
42514;SDS011;28144;49.920;18.730;2023-07-20T11:46:59;5.53;;;2.20;;
42514;SDS011;28144;49.920;18.730;2023-07-20T11:52:55;4.07;;;1.75;;
42514;SDS011;28144;49.920;18.730;2023-07-20T11:55:21;6.20;;;1.80;;
42514;SDS011;28144;49.920;18.730;2023-07-20T12:00:43;3.42;;;2.08;;
42514;SDS011;28144;49.920;18.730;2023-07-20T12:03:09;4.50;;;1.48;;
42514;SDS011;28144;49.920;18.730;2023-07-20T12:05:38;2.03;;;1.30;;
42514;SDS011;28144;49.920;18.730;2023-07-20T12:08:03;6.68;;;1.45;;
42514;SDS011;28144;49.920;18.730;2023-07-20T12:10:30;10.43;;;1.92;;
42514;SDS011;28144;49.920;18.730;2023-07-20T12:13:00;4.47;;;1.90;;
42514;SDS011;28144;49.920;18.730;2023-07-20T12:15:28;2.38;;;1.63;;
42514;SDS011;28144;49.920;18.730;2023-07-20T12:17:58;4.30;;;1.75;;
42514;SDS011;28144;49.920;18.730;2023-07-20T12:23:02;4.78;;;1.70;;
42514;SDS011;28144;49.920;18.730;2023-07-20T12:25:43;4.05;;;1.48;;
42514;SDS011;28144;49.920;18.730;2023-07-20T12:28:19;4.93;;;1.58;;
42514;SDS011;28144;49.920;18.730;2023-07-20T12:30:45;4.85;;;1.40;;
42514;SDS011;28144;49.920;18.730;2023-07-20T12:33:12;4.45;;;1.30;;
42514;SDS011;28144;49.920;18.730;2023-07-20T12:35:41;5.63;;;1.30;;
42514;SDS011;28144;49.920;18.730;2023-07-20T12:38:08;2.60;;;1.38;;
42514;SDS011;28144;49.920;18.730;2023-07-20T12:46:32;2.15;;;1.30;;
42514;SDS011;28144;49.920;18.730;2023-07-20T12:49:00;1.58;;;1.00;;
42514;SDS011;28144;49.920;18.730;2023-07-20T12:51:26;1.58;;;1.20;;
42514;SDS011;28144;49.920;18.730;2023-07-20T12:53:51;2.78;;;1.13;;
42514;SDS011;28144;49.920;18.730;2023-07-20T12:56:20;3.45;;;1.20;;
42514;SDS011;28144;49.920;18.730;2023-07-20T12:58:46;2.72;;;1.30;;
42514;SDS011;28144;49.920;18.730;2023-07-20T13:01:14;2.28;;;1.30;;
42514;SDS011;28144;49.920;18.730;2023-07-20T13:06:07;4.32;;;1.23;;
42514;SDS011;28144;49.920;18.730;2023-07-20T13:08:33;2.42;;;1.40;;
42514;SDS011;28144;49.920;18.730;2023-07-20T13:10:59;1.80;;;1.20;;
42514;SDS011;28144;49.920;18.730;2023-07-20T13:13:25;2.13;;;1.10;;
42514;SDS011;28144;49.920;18.730;2023-07-20T13:15:51;7.65;;;1.65;;
42514;SDS011;28144;49.920;18.730;2023-07-20T13:18:18;4.43;;;1.08;;
42514;SDS011;28144;49.920;18.730;2023-07-20T13:20:44;14.73;;;1.63;;
42514;SDS011;28144;49.920;18.730;2023-07-20T13:23:09;3.25;;;1.25;;
42514;SDS011;28144;49.920;18.730;2023-07-20T13:25:35;2.97;;;0.90;;
42514;SDS011;28144;49.920;18.730;2023-07-20T13:28:01;1.75;;;1.38;;
42514;SDS011;28144;49.920;18.730;2023-07-20T13:32:53;1.88;;;1.40;;
42514;SDS011;28144;49.920;18.730;2023-07-20T13:35:19;5.10;;;1.38;;
42514;SDS011;28144;49.920;18.730;2023-07-20T13:37:44;4.05;;;1.42;;
42514;SDS011;28144;49.920;18.730;2023-07-20T13:40:10;5.88;;;1.40;;
42514;SDS011;28144;49.920;18.730;2023-07-20T13:42:38;4.60;;;1.20;;
42514;SDS011;28144;49.920;18.730;2023-07-20T13:45:06;6.00;;;1.20;;
42514;SDS011;28144;49.920;18.730;2023-07-20T13:47:31;1.48;;;0.98;;
42514;SDS011;28144;49.920;18.730;2023-07-20T13:49:57;5.30;;;1.52;;
42514;SDS011;28144;49.920;18.730;2023-07-20T13:52:24;7.40;;;1.55;;
42514;SDS011;28144;49.920;18.730;2023-07-20T13:54:50;2.38;;;1.20;;
42514;SDS011;28144;49.920;18.730;2023-07-20T13:57:15;3.17;;;1.15;;
42514;SDS011;28144;49.920;18.730;2023-07-20T13:59:42;1.88;;;1.15;;
42514;SDS011;28144;49.920;18.730;2023-07-20T14:02:10;4.03;;;1.20;;
42514;SDS011;28144;49.920;18.730;2023-07-20T14:04:36;3.80;;;1.38;;
42514;SDS011;28144;49.920;18.730;2023-07-20T14:07:05;5.35;;;1.30;;
42514;SDS011;28144;49.920;18.730;2023-07-20T14:09:31;3.05;;;1.27;;
42514;SDS011;28144;49.920;18.730;2023-07-20T14:11:57;2.95;;;1.30;;
42514;SDS011;28144;49.920;18.730;2023-07-20T14:14:24;4.00;;;1.60;;
42514;SDS011;28144;49.920;18.730;2023-07-20T14:16:49;6.80;;;1.88;;
42514;SDS011;28144;49.920;18.730;2023-07-20T14:19:15;4.25;;;1.95;;
42514;SDS011;28144;49.920;18.730;2023-07-20T14:21:41;7.53;;;2.13;;
42514;SDS011;28144;49.920;18.730;2023-07-20T14:24:07;3.25;;;2.00;;
42514;SDS011;28144;49.920;18.730;2023-07-20T14:26:32;6.03;;;2.03;;
42514;SDS011;28144;49.920;18.730;2023-07-20T14:28:58;4.78;;;2.00;;
42514;SDS011;28144;49.920;18.730;2023-07-20T14:31:24;7.80;;;1.40;;
42514;SDS011;28144;49.920;18.730;2023-07-20T14:33:50;1.77;;;1.10;;
42514;SDS011;28144;49.920;18.730;2023-07-20T14:36:15;2.80;;;0.90;;
42514;SDS011;28144;49.920;18.730;2023-07-20T14:38:41;4.78;;;1.77;;
42514;SDS011;28144;49.920;18.730;2023-07-20T14:41:08;3.78;;;1.10;;
42514;SDS011;28144;49.920;18.730;2023-07-20T14:43:34;5.05;;;1.58;;
42514;SDS011;28144;49.920;18.730;2023-07-20T14:46:00;4.53;;;1.90;;
42514;SDS011;28144;49.920;18.730;2023-07-20T14:48:25;13.98;;;2.35;;
42514;SDS011;28144;49.920;18.730;2023-07-20T14:50:51;11.93;;;3.30;;
42514;SDS011;28144;49.920;18.730;2023-07-20T14:53:17;17.38;;;4.45;;
42514;SDS011;28144;49.920;18.730;2023-07-20T14:55:42;14.67;;;3.40;;
42514;SDS011;28144;49.920;18.730;2023-07-20T14:58:09;12.27;;;3.80;;
42514;SDS011;28144;49.920;18.730;2023-07-20T15:00:35;18.23;;;3.70;;
42514;SDS011;28144;49.920;18.730;2023-07-20T15:03:04;7.50;;;2.67;;
42514;SDS011;28144;49.920;18.730;2023-07-20T15:05:39;7.53;;;3.08;;
42514;SDS011;28144;49.920;18.730;2023-07-20T15:08:05;6.28;;;1.98;;
42514;SDS011;28144;49.920;18.730;2023-07-20T15:10:36;4.22;;;1.60;;
42514;SDS011;28144;49.920;18.730;2023-07-20T15:13:22;2.63;;;1.20;;
42514;SDS011;28144;49.920;18.730;2023-07-20T15:15:48;4.28;;;2.13;;
42514;SDS011;28144;49.920;18.730;2023-07-20T15:20:40;5.93;;;1.70;;
42514;SDS011;28144;49.920;18.730;2023-07-20T15:23:09;4.60;;;1.40;;
42514;SDS011;28144;49.920;18.730;2023-07-20T15:25:36;7.97;;;1.65;;
42514;SDS011;28144;49.920;18.730;2023-07-20T15:28:01;5.32;;;1.70;;
42514;SDS011;28144;49.920;18.730;2023-07-20T15:30:28;5.00;;;2.05;;
42514;SDS011;28144;49.920;18.730;2023-07-20T15:35:22;7.90;;;1.65;;
42514;SDS011;28144;49.920;18.730;2023-07-20T15:37:49;5.55;;;1.65;;
42514;SDS011;28144;49.920;18.730;2023-07-20T15:40:14;6.13;;;2.10;;
42514;SDS011;28144;49.920;18.730;2023-07-20T15:42:40;7.95;;;2.30;;
42514;SDS011;28144;49.920;18.730;2023-07-20T15:45:06;3.72;;;1.65;;
42514;SDS011;28144;49.920;18.730;2023-07-20T15:47:32;3.80;;;1.65;;
42514;SDS011;28144;49.920;18.730;2023-07-20T15:49:58;3.63;;;1.30;;
42514;SDS011;28144;49.920;18.730;2023-07-20T15:52:24;5.35;;;1.38;;
42514;SDS011;28144;49.920;18.730;2023-07-20T15:54:50;3.85;;;1.13;;